sensor_id;sensor_type;location;lat;lon;timestamp;P1;durP1;ratioP1;P2;durP2;ratioP2
19434;SDS011;9853;50.848;4.108;2023-07-28T00:00:26;7.22;;;3.67;;
19434;SDS011;9853;50.848;4.108;2023-07-28T00:02:26;6.88;;;3.47;;
19434;SDS011;9853;50.848;4.108;2023-07-28T00:04:27;4.65;;;3.25;;
19434;SDS011;9853;50.848;4.108;2023-07-28T00:06:28;8.88;;;3.63;;
19434;SDS011;9853;50.848;4.108;2023-07-28T00:08:29;7.93;;;4.43;;
19434;SDS011;9853;50.848;4.108;2023-07-28T00:10:29;8.05;;;3.97;;
19434;SDS011;9853;50.848;4.108;2023-07-28T00:12:30;10.90;;;4.30;;
19434;SDS011;9853;50.848;4.108;2023-07-28T00:14:31;9.35;;;4.80;;
19434;SDS011;9853;50.848;4.108;2023-07-28T00:16:32;10.20;;;4.60;;
19434;SDS011;9853;50.848;4.108;2023-07-28T00:18:33;7.55;;;4.75;;
19434;SDS011;9853;50.848;4.108;2023-07-28T00:20:34;10.98;;;4.68;;
19434;SDS011;9853;50.848;4.108;2023-07-28T00:22:34;5.75;;;4.47;;
19434;SDS011;9853;50.848;4.108;2023-07-28T00:24:35;11.57;;;4.80;;
19434;SDS011;9853;50.848;4.108;2023-07-28T00:26:36;8.68;;;5.07;;
19434;SDS011;9853;50.848;4.108;2023-07-28T00:28:36;7.22;;;5.15;;
19434;SDS011;9853;50.848;4.108;2023-07-28T00:30:37;9.07;;;5.55;;
19434;SDS011;9853;50.848;4.108;2023-07-28T00:32:38;11.32;;;5.60;;
19434;SDS011;9853;50.848;4.108;2023-07-28T00:34:39;7.10;;;5.10;;
19434;SDS011;9853;50.848;4.108;2023-07-28T00:36:39;8.60;;;5.65;;
19434;SDS011;9853;50.848;4.108;2023-07-28T00:38:41;11.15;;;5.38;;
19434;SDS011;9853;50.848;4.108;2023-07-28T00:40:42;12.23;;;6.38;;
19434;SDS011;9853;50.848;4.108;2023-07-28T00:42:43;10.90;;;5.63;;
19434;SDS011;9853;50.848;4.108;2023-07-28T00:44:43;10.82;;;5.88;;
19434;SDS011;9853;50.848;4.108;2023-07-28T00:46:44;8.73;;;5.72;;
19434;SDS011;9853;50.848;4.108;2023-07-28T00:48:46;10.95;;;6.45;;
19434;SDS011;9853;50.848;4.108;2023-07-28T00:50:47;11.77;;;5.90;;
19434;SDS011;9853;50.848;4.108;2023-07-28T00:52:49;13.70;;;6.05;;
19434;SDS011;9853;50.848;4.108;2023-07-28T00:54:50;14.43;;;6.03;;
19434;SDS011;9853;50.848;4.108;2023-07-28T00:56:51;9.98;;;5.78;;
19434;SDS011;9853;50.848;4.108;2023-07-28T00:58:52;6.68;;;5.38;;
19434;SDS011;9853;50.848;4.108;2023-07-28T01:00:53;10.93;;;5.75;;
19434;SDS011;9853;50.848;4.108;2023-07-28T01:02:54;11.63;;;5.35;;
19434;SDS011;9853;50.848;4.108;2023-07-28T01:04:55;9.73;;;5.50;;
19434;SDS011;9853;50.848;4.108;2023-07-28T01:09:12;10.73;;;5.07;;
19434;SDS011;9853;50.848;4.108;2023-07-28T01:11:15;7.03;;;5.53;;
19434;SDS011;9853;50.848;4.108;2023-07-28T01:13:15;7.80;;;4.95;;
19434;SDS011;9853;50.848;4.108;2023-07-28T01:15:16;10.18;;;4.93;;
19434;SDS011;9853;50.848;4.108;2023-07-28T01:17:17;8.27;;;4.88;;
19434;SDS011;9853;50.848;4.108;2023-07-28T01:19:20;12.88;;;4.60;;
19434;SDS011;9853;50.848;4.108;2023-07-28T01:21:25;11.23;;;4.60;;
19434;SDS011;9853;50.848;4.108;2023-07-28T01:27:58;9.25;;;4.65;;
19434;SDS011;9853;50.848;4.108;2023-07-28T01:30:01;7.45;;;4.13;;
19434;SDS011;9853;50.848;4.108;2023-07-28T01:32:03;9.55;;;3.75;;
19434;SDS011;9853;50.848;4.108;2023-07-28T01:34:04;11.35;;;3.67;;
19434;SDS011;9853;50.848;4.108;2023-07-28T01:36:05;8.57;;;3.50;;
19434;SDS011;9853;50.848;4.108;2023-07-28T01:38:06;8.00;;;3.40;;
19434;SDS011;9853;50.848;4.108;2023-07-28T01:40:07;7.88;;;3.13;;
19434;SDS011;9853;50.848;4.108;2023-07-28T01:42:09;8.07;;;2.70;;
19434;SDS011;9853;50.848;4.108;2023-07-28T01:44:10;6.50;;;2.97;;
19434;SDS011;9853;50.848;4.108;2023-07-28T01:46:11;5.30;;;2.60;;
19434;SDS011;9853;50.848;4.108;2023-07-28T01:48:12;5.25;;;2.80;;
19434;SDS011;9853;50.848;4.108;2023-07-28T01:50:13;6.18;;;3.20;;
19434;SDS011;9853;50.848;4.108;2023-07-28T01:52:14;7.85;;;3.10;;
19434;SDS011;9853;50.848;4.108;2023-07-28T01:54:14;6.10;;;2.83;;
19434;SDS011;9853;50.848;4.108;2023-07-28T01:56:15;5.60;;;3.08;;
19434;SDS011;9853;50.848;4.108;2023-07-28T01:58:16;6.57;;;2.88;;
19434;SDS011;9853;50.848;4.108;2023-07-28T02:00:17;6.50;;;2.78;;
19434;SDS011;9853;50.848;4.108;2023-07-28T02:02:20;5.88;;;2.42;;
19434;SDS011;9853;50.848;4.108;2023-07-28T02:04:21;8.85;;;3.00;;
19434;SDS011;9853;50.848;4.108;2023-07-28T02:06:22;7.78;;;2.67;;
19434;SDS011;9853;50.848;4.108;2023-07-28T02:08:23;7.47;;;2.47;;
19434;SDS011;9853;50.848;4.108;2023-07-28T02:10:26;5.90;;;2.85;;
19434;SDS011;9853;50.848;4.108;2023-07-28T02:12:27;6.78;;;2.40;;
19434;SDS011;9853;50.848;4.108;2023-07-28T02:14:28;4.65;;;2.55;;
19434;SDS011;9853;50.848;4.108;2023-07-28T02:16:28;6.95;;;2.80;;
19434;SDS011;9853;50.848;4.108;2023-07-28T02:18:30;6.93;;;2.80;;
19434;SDS011;9853;50.848;4.108;2023-07-28T02:20:31;5.13;;;2.83;;
19434;SDS011;9853;50.848;4.108;2023-07-28T02:22:33;4.72;;;2.58;;
19434;SDS011;9853;50.848;4.108;2023-07-28T02:24:34;8.02;;;3.25;;
19434;SDS011;9853;50.848;4.108;2023-07-28T02:26:35;8.65;;;3.13;;
19434;SDS011;9853;50.848;4.108;2023-07-28T02:28:35;7.45;;;3.28;;
19434;SDS011;9853;50.848;4.108;2023-07-28T02:30:37;10.60;;;3.10;;
19434;SDS011;9853;50.848;4.108;2023-07-28T02:32:40;6.30;;;2.72;;
19434;SDS011;9853;50.848;4.108;2023-07-28T02:34:41;5.47;;;2.83;;
19434;SDS011;9853;50.848;4.108;2023-07-28T02:36:41;7.30;;;3.00;;
19434;SDS011;9853;50.848;4.108;2023-07-28T02:38:42;7.57;;;3.35;;
19434;SDS011;9853;50.848;4.108;2023-07-28T02:40:43;4.32;;;2.85;;
19434;SDS011;9853;50.848;4.108;2023-07-28T02:42:44;10.82;;;3.28;;
19434;SDS011;9853;50.848;4.108;2023-07-28T02:44:45;12.32;;;3.28;;
19434;SDS011;9853;50.848;4.108;2023-07-28T02:46:45;6.60;;;3.60;;
19434;SDS011;9853;50.848;4.108;2023-07-28T02:48:46;4.90;;;3.53;;
19434;SDS011;9853;50.848;4.108;2023-07-28T02:50:47;6.68;;;4.25;;
19434;SDS011;9853;50.848;4.108;2023-07-28T02:52:49;12.98;;;5.07;;
19434;SDS011;9853;50.848;4.108;2023-07-28T02:54:50;11.18;;;5.13;;
19434;SDS011;9853;50.848;4.108;2023-07-28T02:56:51;8.68;;;5.00;;
19434;SDS011;9853;50.848;4.108;2023-07-28T02:58:52;8.55;;;5.95;;
19434;SDS011;9853;50.848;4.108;2023-07-28T03:00:53;9.18;;;6.35;;
19434;SDS011;9853;50.848;4.108;2023-07-28T03:03:02;12.68;;;7.15;;
19434;SDS011;9853;50.848;4.108;2023-07-28T03:05:03;14.40;;;7.55;;
19434;SDS011;9853;50.848;4.108;2023-07-28T03:07:24;16.63;;;8.88;;
19434;SDS011;9853;50.848;4.108;2023-07-28T03:09:33;14.52;;;8.63;;
19434;SDS011;9853;50.848;4.108;2023-07-28T03:11:36;22.05;;;10.35;;
19434;SDS011;9853;50.848;4.108;2023-07-28T03:13:37;19.40;;;10.98;;
19434;SDS011;9853;50.848;4.108;2023-07-28T03:15:37;17.98;;;10.73;;
19434;SDS011;9853;50.848;4.108;2023-07-28T03:17:39;18.85;;;10.40;;
19434;SDS011;9853;50.848;4.108;2023-07-28T03:19:43;23.42;;;11.23;;
19434;SDS011;9853;50.848;4.108;2023-07-28T03:21:52;16.85;;;10.05;;
19434;SDS011;9853;50.848;4.108;2023-07-28T03:23:53;17.20;;;10.40;;
19434;SDS011;9853;50.848;4.108;2023-07-28T03:25:57;18.40;;;9.93;;
19434;SDS011;9853;50.848;4.108;2023-07-28T03:27:57;21.80;;;9.57;;
19434;SDS011;9853;50.848;4.108;2023-07-28T03:29:58;13.75;;;8.68;;
19434;SDS011;9853;50.848;4.108;2023-07-28T03:31:59;20.85;;;9.13;;
19434;SDS011;9853;50.848;4.108;2023-07-28T03:34:01;15.20;;;9.30;;
19434;SDS011;9853;50.848;4.108;2023-07-28T03:36:03;18.85;;;8.63;;
19434;SDS011;9853;50.848;4.108;2023-07-28T03:38:06;12.63;;;7.90;;
19434;SDS011;9853;50.848;4.108;2023-07-28T03:40:07;19.10;;;8.27;;
19434;SDS011;9853;50.848;4.108;2023-07-28T03:42:17;17.85;;;8.10;;
19434;SDS011;9853;50.848;4.108;2023-07-28T03:44:18;19.95;;;8.48;;
19434;SDS011;9853;50.848;4.108;2023-07-28T03:46:19;19.05;;;9.00;;
19434;SDS011;9853;50.848;4.108;2023-07-28T03:48:20;19.67;;;8.38;;
19434;SDS011;9853;50.848;4.108;2023-07-28T03:50:24;21.80;;;7.78;;
19434;SDS011;9853;50.848;4.108;2023-07-28T03:52:35;20.35;;;7.85;;
19434;SDS011;9853;50.848;4.108;2023-07-28T03:54:47;20.23;;;7.22;;
19434;SDS011;9853;50.848;4.108;2023-07-28T03:56:48;14.13;;;7.43;;
19434;SDS011;9853;50.848;4.108;2023-07-28T03:59:03;9.88;;;6.53;;
19434;SDS011;9853;50.848;4.108;2023-07-28T04:01:04;15.05;;;6.78;;
19434;SDS011;9853;50.848;4.108;2023-07-28T04:03:08;10.52;;;5.45;;
19434;SDS011;9853;50.848;4.108;2023-07-28T04:05:09;6.32;;;5.15;;
19434;SDS011;9853;50.848;4.108;2023-07-28T04:07:09;13.52;;;5.47;;
19434;SDS011;9853;50.848;4.108;2023-07-28T04:09:11;10.23;;;5.20;;
19434;SDS011;9853;50.848;4.108;2023-07-28T04:11:13;9.93;;;4.82;;
19434;SDS011;9853;50.848;4.108;2023-07-28T04:13:17;14.02;;;4.80;;
19434;SDS011;9853;50.848;4.108;2023-07-28T04:15:18;7.78;;;4.63;;
19434;SDS011;9853;50.848;4.108;2023-07-28T04:17:21;8.90;;;5.47;;
19434;SDS011;9853;50.848;4.108;2023-07-28T04:19:22;9.75;;;4.45;;
19434;SDS011;9853;50.848;4.108;2023-07-28T04:21:23;9.20;;;4.50;;
19434;SDS011;9853;50.848;4.108;2023-07-28T04:23:24;13.88;;;4.90;;
19434;SDS011;9853;50.848;4.108;2023-07-28T04:25:28;11.68;;;4.78;;
19434;SDS011;9853;50.848;4.108;2023-07-28T04:27:29;17.63;;;5.57;;
19434;SDS011;9853;50.848;4.108;2023-07-28T04:29:42;12.45;;;4.75;;
19434;SDS011;9853;50.848;4.108;2023-07-28T04:31:52;11.43;;;4.13;;
19434;SDS011;9853;50.848;4.108;2023-07-28T04:34:03;8.65;;;3.75;;
19434;SDS011;9853;50.848;4.108;2023-07-28T04:36:29;16.85;;;4.57;;
19434;SDS011;9853;50.848;4.108;2023-07-28T04:38:30;10.20;;;3.85;;
19434;SDS011;9853;50.848;4.108;2023-07-28T04:40:33;14.48;;;3.10;;
19434;SDS011;9853;50.848;4.108;2023-07-28T04:43:08;8.80;;;3.25;;
19434;SDS011;9853;50.848;4.108;2023-07-28T04:45:09;6.00;;;2.70;;
19434;SDS011;9853;50.848;4.108;2023-07-28T04:47:10;6.07;;;2.90;;
19434;SDS011;9853;50.848;4.108;2023-07-28T04:49:11;4.78;;;2.33;;
19434;SDS011;9853;50.848;4.108;2023-07-28T04:51:38;4.55;;;2.20;;
19434;SDS011;9853;50.848;4.108;2023-07-28T04:54:02;9.05;;;2.20;;
19434;SDS011;9853;50.848;4.108;2023-07-28T04:56:19;6.20;;;2.53;;
19434;SDS011;9853;50.848;4.108;2023-07-28T04:58:20;4.43;;;2.10;;
19434;SDS011;9853;50.848;4.108;2023-07-28T05:00:25;3.80;;;1.98;;
19434;SDS011;9853;50.848;4.108;2023-07-28T05:02:26;5.15;;;1.80;;
19434;SDS011;9853;50.848;4.108;2023-07-28T05:04:32;5.38;;;1.85;;
19434;SDS011;9853;50.848;4.108;2023-07-28T05:06:40;6.07;;;1.52;;
19434;SDS011;9853;50.848;4.108;2023-07-28T05:08:49;2.22;;;1.48;;
19434;SDS011;9853;50.848;4.108;2023-07-28T05:11:08;3.20;;;1.45;;
19434;SDS011;9853;50.848;4.108;2023-07-28T05:13:19;5.57;;;1.60;;
19434;SDS011;9853;50.848;4.108;2023-07-28T05:15:34;1.83;;;1.35;;
19434;SDS011;9853;50.848;4.108;2023-07-28T05:18:29;2.70;;;1.73;;
19434;SDS011;9853;50.848;4.108;2023-07-28T05:21:23;3.08;;;1.83;;
19434;SDS011;9853;50.848;4.108;2023-07-28T05:27:26;2.10;;;1.70;;
19434;SDS011;9853;50.848;4.108;2023-07-28T05:32:01;2.50;;;1.60;;
19434;SDS011;9853;50.848;4.108;2023-07-28T05:34:20;3.28;;;1.60;;
19434;SDS011;9853;50.848;4.108;2023-07-28T05:36:23;4.60;;;1.50;;
19434;SDS011;9853;50.848;4.108;2023-07-28T05:38:36;4.57;;;1.30;;
19434;SDS011;9853;50.848;4.108;2023-07-28T05:41:03;1.95;;;1.17;;
19434;SDS011;9853;50.848;4.108;2023-07-28T05:43:07;2.17;;;1.17;;
19434;SDS011;9853;50.848;4.108;2023-07-28T05:45:20;2.50;;;1.00;;
19434;SDS011;9853;50.848;4.108;2023-07-28T05:47:43;2.90;;;1.10;;
19434;SDS011;9853;50.848;4.108;2023-07-28T05:50:04;0.93;;;0.70;;
19434;SDS011;9853;50.848;4.108;2023-07-28T05:52:46;1.20;;;0.70;;
19434;SDS011;9853;50.848;4.108;2023-07-28T05:54:57;2.03;;;0.60;;
19434;SDS011;9853;50.848;4.108;2023-07-28T05:57:18;1.63;;;0.80;;
19434;SDS011;9853;50.848;4.108;2023-07-28T05:59:22;0.90;;;0.57;;
19434;SDS011;9853;50.848;4.108;2023-07-28T06:02:02;0.60;;;0.60;;
19434;SDS011;9853;50.848;4.108;2023-07-28T06:04:25;1.40;;;0.68;;
19434;SDS011;9853;50.848;4.108;2023-07-28T06:06:35;2.05;;;0.73;;
19434;SDS011;9853;50.848;4.108;2023-07-28T06:08:36;2.92;;;0.80;;
19434;SDS011;9853;50.848;4.108;2023-07-28T06:10:37;1.85;;;0.82;;
19434;SDS011;9853;50.848;4.108;2023-07-28T06:12:44;3.03;;;0.98;;
19434;SDS011;9853;50.848;4.108;2023-07-28T06:15:08;1.83;;;0.70;;
19434;SDS011;9853;50.848;4.108;2023-07-28T06:17:32;2.30;;;0.80;;
19434;SDS011;9853;50.848;4.108;2023-07-28T06:19:38;2.58;;;1.00;;
19434;SDS011;9853;50.848;4.108;2023-07-28T06:24:36;3.60;;;0.80;;
19434;SDS011;9853;50.848;4.108;2023-07-28T06:29:38;0.68;;;0.40;;
19434;SDS011;9853;50.848;4.108;2023-07-28T06:31:45;1.08;;;0.60;;
19434;SDS011;9853;50.848;4.108;2023-07-28T06:34:15;4.45;;;0.63;;
19434;SDS011;9853;50.848;4.108;2023-07-28T06:36:43;3.60;;;0.60;;
19434;SDS011;9853;50.848;4.108;2023-07-28T06:38:46;0.73;;;0.70;;
19434;SDS011;9853;50.848;4.108;2023-07-28T06:43:44;0.98;;;0.60;;
19434;SDS011;9853;50.848;4.108;2023-07-28T06:45:50;0.80;;;0.73;;
19434;SDS011;9853;50.848;4.108;2023-07-28T06:48:34;0.98;;;0.75;;
19434;SDS011;9853;50.848;4.108;2023-07-28T06:53:15;2.33;;;0.60;;
19434;SDS011;9853;50.848;4.108;2023-07-28T06:55:19;4.47;;;0.65;;
19434;SDS011;9853;50.848;4.108;2023-07-28T06:57:38;2.33;;;0.55;;
19434;SDS011;9853;50.848;4.108;2023-07-28T07:00:05;2.92;;;0.52;;
19434;SDS011;9853;50.848;4.108;2023-07-28T07:02:38;2.92;;;1.05;;
19434;SDS011;9853;50.848;4.108;2023-07-28T07:05:37;3.67;;;0.85;;
19434;SDS011;9853;50.848;4.108;2023-07-28T07:10:33;2.72;;;0.60;;
19434;SDS011;9853;50.848;4.108;2023-07-28T07:13:12;1.15;;;0.43;;
19434;SDS011;9853;50.848;4.108;2023-07-28T07:15:34;5.55;;;0.60;;
19434;SDS011;9853;50.848;4.108;2023-07-28T07:18:07;3.00;;;0.50;;
19434;SDS011;9853;50.848;4.108;2023-07-28T07:20:20;2.75;;;0.47;;
19434;SDS011;9853;50.848;4.108;2023-07-28T07:22:23;1.02;;;0.60;;
19434;SDS011;9853;50.848;4.108;2023-07-28T07:24:28;4.47;;;0.65;;
19434;SDS011;9853;50.848;4.108;2023-07-28T07:56:47;1.58;;;0.85;;
19434;SDS011;9853;50.848;4.108;2023-07-28T08:01:42;1.77;;;0.70;;
19434;SDS011;9853;50.848;4.108;2023-07-28T08:03:47;4.97;;;1.17;;
19434;SDS011;9853;50.848;4.108;2023-07-28T08:06:05;3.90;;;0.88;;
19434;SDS011;9853;50.848;4.108;2023-07-28T08:08:13;1.95;;;1.10;;
19434;SDS011;9853;50.848;4.108;2023-07-28T08:10:54;1.83;;;1.05;;
19434;SDS011;9853;50.848;4.108;2023-07-28T08:14:18;2.20;;;0.80;;
19434;SDS011;9853;50.848;4.108;2023-07-28T08:16:18;1.98;;;0.80;;
19434;SDS011;9853;50.848;4.108;2023-07-28T08:18:19;3.47;;;0.63;;
19434;SDS011;9853;50.848;4.108;2023-07-28T08:20:20;5.90;;;0.70;;
19434;SDS011;9853;50.848;4.108;2023-07-28T08:23:27;0.68;;;0.40;;
19434;SDS011;9853;50.848;4.108;2023-07-28T08:25:44;1.42;;;0.60;;
19434;SDS011;9853;50.848;4.108;2023-07-28T08:28:03;3.08;;;0.60;;
19434;SDS011;9853;50.848;4.108;2023-07-28T08:30:07;2.35;;;0.52;;
19434;SDS011;9853;50.848;4.108;2023-07-28T08:32:16;1.95;;;0.40;;
19434;SDS011;9853;50.848;4.108;2023-07-28T08:34:20;0.50;;;0.30;;
19434;SDS011;9853;50.848;4.108;2023-07-28T08:36:21;3.85;;;0.40;;
19434;SDS011;9853;50.848;4.108;2023-07-28T08:38:30;0.77;;;0.25;;
19434;SDS011;9853;50.848;4.108;2023-07-28T08:40:30;2.50;;;0.40;;
19434;SDS011;9853;50.848;4.108;2023-07-28T08:42:37;3.00;;;0.38;;
19434;SDS011;9853;50.848;4.108;2023-07-28T08:44:39;0.80;;;0.35;;
19434;SDS011;9853;50.848;4.108;2023-07-28T08:46:40;2.47;;;0.30;;
19434;SDS011;9853;50.848;4.108;2023-07-28T08:48:41;1.17;;;0.30;;
19434;SDS011;9853;50.848;4.108;2023-07-28T08:50:42;0.98;;;0.28;;
19434;SDS011;9853;50.848;4.108;2023-07-28T08:52:48;2.30;;;0.30;;
19434;SDS011;9853;50.848;4.108;2023-07-28T08:54:50;0.60;;;0.30;;
19434;SDS011;9853;50.848;4.108;2023-07-28T08:56:54;5.43;;;0.30;;
19434;SDS011;9853;50.848;4.108;2023-07-28T08:59:09;1.05;;;0.20;;
19434;SDS011;9853;50.848;4.108;2023-07-28T09:01:10;2.70;;;0.20;;
19434;SDS011;9853;50.848;4.108;2023-07-28T09:03:28;0.75;;;0.30;;
19434;SDS011;9853;50.848;4.108;2023-07-28T09:05:29;1.17;;;0.25;;
19434;SDS011;9853;50.848;4.108;2023-07-28T09:07:36;0.73;;;0.25;;
19434;SDS011;9853;50.848;4.108;2023-07-28T09:09:37;1.23;;;0.30;;
19434;SDS011;9853;50.848;4.108;2023-07-28T09:11:48;0.47;;;0.30;;
19434;SDS011;9853;50.848;4.108;2023-07-28T09:13:54;0.52;;;0.17;;
19434;SDS011;9853;50.848;4.108;2023-07-28T09:15:56;0.30;;;0.20;;
19434;SDS011;9853;50.848;4.108;2023-07-28T09:17:56;0.65;;;0.13;;
19434;SDS011;9853;50.848;4.108;2023-07-28T09:20:03;0.73;;;0.20;;
19434;SDS011;9853;50.848;4.108;2023-07-28T09:22:08;1.60;;;0.22;;
19434;SDS011;9853;50.848;4.108;2023-07-28T09:24:10;2.75;;;0.20;;
19434;SDS011;9853;50.848;4.108;2023-07-28T09:26:11;1.75;;;0.35;;
19434;SDS011;9853;50.848;4.108;2023-07-28T09:28:12;1.88;;;0.28;;
19434;SDS011;9853;50.848;4.108;2023-07-28T09:30:14;2.35;;;0.30;;
19434;SDS011;9853;50.848;4.108;2023-07-28T09:32:18;0.82;;;0.30;;
19434;SDS011;9853;50.848;4.108;2023-07-28T09:34:29;0.60;;;0.20;;
19434;SDS011;9853;50.848;4.108;2023-07-28T09:36:30;2.28;;;0.25;;
19434;SDS011;9853;50.848;4.108;2023-07-28T09:38:30;2.55;;;0.30;;
19434;SDS011;9853;50.848;4.108;2023-07-28T09:40:36;1.75;;;0.30;;
19434;SDS011;9853;50.848;4.108;2023-07-28T09:42:37;0.90;;;0.50;;
19434;SDS011;9853;50.848;4.108;2023-07-28T09:44:38;0.80;;;0.50;;
19434;SDS011;9853;50.848;4.108;2023-07-28T09:46:53;0.65;;;0.40;;
19434;SDS011;9853;50.848;4.108;2023-07-28T09:48:56;2.20;;;0.40;;
19434;SDS011;9853;50.848;4.108;2023-07-28T09:51:10;1.88;;;0.45;;
19434;SDS011;9853;50.848;4.108;2023-07-28T09:53:14;2.88;;;0.40;;
19434;SDS011;9853;50.848;4.108;2023-07-28T09:55:17;3.35;;;0.50;;
19434;SDS011;9853;50.848;4.108;2023-07-28T09:57:19;4.75;;;0.60;;
19434;SDS011;9853;50.848;4.108;2023-07-28T09:59:20;6.63;;;0.40;;
19434;SDS011;9853;50.848;4.108;2023-07-28T10:01:24;3.00;;;0.40;;
19434;SDS011;9853;50.848;4.108;2023-07-28T10:03:25;1.05;;;0.40;;
19434;SDS011;9853;50.848;4.108;2023-07-28T10:05:26;0.85;;;0.30;;
19434;SDS011;9853;50.848;4.108;2023-07-28T10:07:28;1.30;;;0.28;;
19434;SDS011;9853;50.848;4.108;2023-07-28T10:09:29;7.70;;;0.40;;
19434;SDS011;9853;50.848;4.108;2023-07-28T10:11:31;1.00;;;0.40;;
19434;SDS011;9853;50.848;4.108;2023-07-28T10:13:42;0.85;;;0.35;;
19434;SDS011;9853;50.848;4.108;2023-07-28T10:15:45;0.98;;;0.30;;
19434;SDS011;9853;50.848;4.108;2023-07-28T10:17:53;0.98;;;0.50;;
19434;SDS011;9853;50.848;4.108;2023-07-28T10:19:57;5.88;;;0.60;;
19434;SDS011;9853;50.848;4.108;2023-07-28T10:21:59;1.77;;;0.32;;
19434;SDS011;9853;50.848;4.108;2023-07-28T10:24:00;0.80;;;0.32;;
19434;SDS011;9853;50.848;4.108;2023-07-28T10:26:04;2.28;;;0.22;;
19434;SDS011;9853;50.848;4.108;2023-07-28T10:28:06;0.68;;;0.35;;
19434;SDS011;9853;50.848;4.108;2023-07-28T10:30:25;1.05;;;0.50;;
19434;SDS011;9853;50.848;4.108;2023-07-28T10:32:26;0.68;;;0.50;;
19434;SDS011;9853;50.848;4.108;2023-07-28T10:34:30;2.17;;;0.60;;
19434;SDS011;9853;50.848;4.108;2023-07-28T10:38:35;3.72;;;0.60;;
19434;SDS011;9853;50.848;4.108;2023-07-28T10:40:37;1.80;;;0.63;;
19434;SDS011;9853;50.848;4.108;2023-07-28T10:42:39;2.03;;;0.68;;
19434;SDS011;9853;50.848;4.108;2023-07-28T10:44:41;1.77;;;0.68;;
19434;SDS011;9853;50.848;4.108;2023-07-28T10:46:42;1.58;;;0.90;;
19434;SDS011;9853;50.848;4.108;2023-07-28T10:48:44;1.63;;;0.80;;
19434;SDS011;9853;50.848;4.108;2023-07-28T10:50:46;3.40;;;0.93;;
19434;SDS011;9853;50.848;4.108;2023-07-28T10:52:46;1.38;;;0.80;;
19434;SDS011;9853;50.848;4.108;2023-07-28T10:54:47;1.63;;;0.82;;
19434;SDS011;9853;50.848;4.108;2023-07-28T10:56:48;3.72;;;0.90;;
19434;SDS011;9853;50.848;4.108;2023-07-28T10:58:56;2.47;;;1.20;;
19434;SDS011;9853;50.848;4.108;2023-07-28T11:00:57;1.65;;;1.08;;
19434;SDS011;9853;50.848;4.108;2023-07-28T11:02:58;6.05;;;0.93;;
19434;SDS011;9853;50.848;4.108;2023-07-28T11:05:04;1.98;;;0.98;;
19434;SDS011;9853;50.848;4.108;2023-07-28T11:07:06;2.92;;;0.63;;
19434;SDS011;9853;50.848;4.108;2023-07-28T11:09:07;3.92;;;0.80;;
19434;SDS011;9853;50.848;4.108;2023-07-28T11:11:09;1.27;;;0.60;;
19434;SDS011;9853;50.848;4.108;2023-07-28T11:13:10;1.30;;;0.55;;
19434;SDS011;9853;50.848;4.108;2023-07-28T11:15:12;1.88;;;0.57;;
19434;SDS011;9853;50.848;4.108;2023-07-28T11:17:14;0.75;;;0.50;;
19434;SDS011;9853;50.848;4.108;2023-07-28T11:19:15;4.10;;;0.70;;
19434;SDS011;9853;50.848;4.108;2023-07-28T11:21:21;1.73;;;0.70;;
19434;SDS011;9853;50.848;4.108;2023-07-28T11:23:32;1.65;;;0.80;;
19434;SDS011;9853;50.848;4.108;2023-07-28T11:25:33;2.20;;;0.57;;
19434;SDS011;9853;50.848;4.108;2023-07-28T11:27:36;2.50;;;0.80;;
19434;SDS011;9853;50.848;4.108;2023-07-28T11:29:37;0.77;;;0.60;;
19434;SDS011;9853;50.848;4.108;2023-07-28T11:31:38;3.65;;;0.60;;
19434;SDS011;9853;50.848;4.108;2023-07-28T11:33:41;2.10;;;0.70;;
19434;SDS011;9853;50.848;4.108;2023-07-28T11:35:44;2.90;;;0.57;;
19434;SDS011;9853;50.848;4.108;2023-07-28T11:37:46;4.90;;;0.80;;
19434;SDS011;9853;50.848;4.108;2023-07-28T11:39:50;2.05;;;0.70;;
19434;SDS011;9853;50.848;4.108;2023-07-28T11:41:51;2.85;;;0.65;;
19434;SDS011;9853;50.848;4.108;2023-07-28T11:43:55;2.05;;;0.60;;
19434;SDS011;9853;50.848;4.108;2023-07-28T11:45:55;1.83;;;0.65;;
19434;SDS011;9853;50.848;4.108;2023-07-28T11:50:06;1.90;;;0.80;;
19434;SDS011;9853;50.848;4.108;2023-07-28T11:52:08;3.05;;;0.80;;
19434;SDS011;9853;50.848;4.108;2023-07-28T11:54:13;1.27;;;0.80;;
19434;SDS011;9853;50.848;4.108;2023-07-28T11:56:14;1.15;;;0.70;;
19434;SDS011;9853;50.848;4.108;2023-07-28T11:58:15;4.00;;;1.05;;
19434;SDS011;9853;50.848;4.108;2023-07-28T12:00:16;2.67;;;0.77;;
19434;SDS011;9853;50.848;4.108;2023-07-28T12:02:24;1.48;;;0.70;;
19434;SDS011;9853;50.848;4.108;2023-07-28T12:04:36;3.30;;;0.60;;
19434;SDS011;9853;50.848;4.108;2023-07-28T12:06:59;4.10;;;0.70;;
19434;SDS011;9853;50.848;4.108;2023-07-28T12:09:09;1.08;;;0.70;;
19434;SDS011;9853;50.848;4.108;2023-07-28T12:11:13;1.10;;;0.70;;
19434;SDS011;9853;50.848;4.108;2023-07-28T12:13:18;1.25;;;0.80;;
19434;SDS011;9853;50.848;4.108;2023-07-28T12:17:28;2.30;;;0.95;;
19434;SDS011;9853;50.848;4.108;2023-07-28T12:19:29;3.55;;;1.08;;
19434;SDS011;9853;50.848;4.108;2023-07-28T12:21:29;2.55;;;1.00;;
19434;SDS011;9853;50.848;4.108;2023-07-28T12:23:34;5.75;;;0.98;;
19434;SDS011;9853;50.848;4.108;2023-07-28T12:25:35;5.15;;;0.90;;
19434;SDS011;9853;50.848;4.108;2023-07-28T12:27:40;0.60;;;0.52;;
19434;SDS011;9853;50.848;4.108;2023-07-28T12:29:41;1.00;;;0.90;;
19434;SDS011;9853;50.848;4.108;2023-07-28T12:31:41;0.80;;;0.60;;
19434;SDS011;9853;50.848;4.108;2023-07-28T12:33:42;0.73;;;0.63;;
19434;SDS011;9853;50.848;4.108;2023-07-28T12:35:43;3.50;;;0.80;;
19434;SDS011;9853;50.848;4.108;2023-07-28T12:37:44;1.77;;;0.80;;
19434;SDS011;9853;50.848;4.108;2023-07-28T12:39:46;1.33;;;0.60;;
19434;SDS011;9853;50.848;4.108;2023-07-28T12:41:48;1.20;;;0.80;;
19434;SDS011;9853;50.848;4.108;2023-07-28T12:43:54;1.52;;;0.77;;
19434;SDS011;9853;50.848;4.108;2023-07-28T12:45:54;2.55;;;0.70;;
19434;SDS011;9853;50.848;4.108;2023-07-28T12:47:55;1.27;;;0.68;;
19434;SDS011;9853;50.848;4.108;2023-07-28T12:49:56;0.95;;;0.70;;
19434;SDS011;9853;50.848;4.108;2023-07-28T12:51:58;2.00;;;0.80;;
19434;SDS011;9853;50.848;4.108;2023-07-28T12:53:59;2.30;;;0.75;;
19434;SDS011;9853;50.848;4.108;2023-07-28T12:56:00;4.50;;;0.75;;
19434;SDS011;9853;50.848;4.108;2023-07-28T12:58:01;1.15;;;0.65;;
19434;SDS011;9853;50.848;4.108;2023-07-28T13:00:02;2.05;;;0.75;;
19434;SDS011;9853;50.848;4.108;2023-07-28T13:02:12;2.80;;;0.80;;
19434;SDS011;9853;50.848;4.108;2023-07-28T13:04:13;2.40;;;0.60;;
19434;SDS011;9853;50.848;4.108;2023-07-28T13:06:18;1.55;;;0.65;;
19434;SDS011;9853;50.848;4.108;2023-07-28T13:08:19;1.00;;;0.60;;
19434;SDS011;9853;50.848;4.108;2023-07-28T13:10:36;1.60;;;0.63;;
19434;SDS011;9853;50.848;4.108;2023-07-28T13:12:37;3.13;;;0.80;;
19434;SDS011;9853;50.848;4.108;2023-07-28T13:14:41;1.15;;;0.60;;
19434;SDS011;9853;50.848;4.108;2023-07-28T13:16:41;1.13;;;0.60;;
19434;SDS011;9853;50.848;4.108;2023-07-28T13:18:42;2.47;;;0.80;;
19434;SDS011;9853;50.848;4.108;2023-07-28T13:20:45;1.27;;;0.70;;
19434;SDS011;9853;50.848;4.108;2023-07-28T13:22:45;1.45;;;0.50;;
19434;SDS011;9853;50.848;4.108;2023-07-28T13:24:46;2.95;;;0.70;;
19434;SDS011;9853;50.848;4.108;2023-07-28T13:26:47;1.77;;;0.75;;
19434;SDS011;9853;50.848;4.108;2023-07-28T13:28:48;4.22;;;0.63;;
19434;SDS011;9853;50.848;4.108;2023-07-28T13:30:49;1.55;;;0.65;;
19434;SDS011;9853;50.848;4.108;2023-07-28T13:32:50;2.70;;;0.85;;
19434;SDS011;9853;50.848;4.108;2023-07-28T13:34:51;1.48;;;0.85;;
19434;SDS011;9853;50.848;4.108;2023-07-28T13:36:55;1.55;;;0.85;;
19434;SDS011;9853;50.848;4.108;2023-07-28T13:38:56;3.42;;;0.82;;
19434;SDS011;9853;50.848;4.108;2023-07-28T13:40:56;1.83;;;0.80;;
19434;SDS011;9853;50.848;4.108;2023-07-28T13:42:57;1.60;;;0.70;;
19434;SDS011;9853;50.848;4.108;2023-07-28T13:44:58;2.13;;;0.82;;
19434;SDS011;9853;50.848;4.108;2023-07-28T13:46:59;1.30;;;0.70;;
19434;SDS011;9853;50.848;4.108;2023-07-28T13:49:00;12.52;;;0.90;;
19434;SDS011;9853;50.848;4.108;2023-07-28T13:51:01;1.40;;;0.80;;
19434;SDS011;9853;50.848;4.108;2023-07-28T13:53:02;3.80;;;0.90;;